Portada
METAR-TAF:

METAR-TAF

Aeroports :

Hilton Head Airport

Hilton Head Island, Carolina del Sud, Estats Units d'Amèrica

latitud: 32-13N, longitud: 080-42W, altitud: 6 m

Observació

L'informe es va fer fa 1 hora i 4 minuts, a les 21:50 UTC
Vent 10 kt del Sud
Temperatura 27°C
Humitat 79%
Pressió 1017 hPa
Visibilitat: 16.1 km
Escasses núvols a una alçada de 9500 ft

METAR: KHXD 242150Z 18010KT 10SM FEW095 27/23 A3003

Hora: 18:54 (22:54 UTC)


TAF: manca

Observacions i pronòstics meteorològics de més de 4000 aeroports (METAR i TAF).

Les estacions disponibles són els punts grocs i vermells al mapa.

Posi el ratolí al punt desitjat per veure el nom de l'estació.

Feu clic per veure les observacions i els pronòstics meteorològics.

Per canviar el mapa: feu clic els botons verds amb una creu de color negre per apropar; al botó verd amb un guió per allunyar la imatge; o en les fletxes verdes per a mapes adjacents.


METAR-TAF: